createdAt,value
2023-04-09T00:00:30.885Z,51.2516
2023-04-09T00:01:32.527Z,51.1671
2023-04-09T00:02:34.134Z,51.4759
2023-04-09T00:03:35.975Z,51.6467
2023-04-09T00:04:37.512Z,51.9974
2023-04-09T00:05:39.045Z,51.7204
2023-04-09T00:06:40.729Z,51.5124
2023-04-09T00:07:44.498Z,51.2653
2023-04-09T00:08:44.001Z,51.0573
2023-04-09T00:09:45.795Z,50.9768
2023-04-09T00:10:47.419Z,51.2341
2023-04-09T00:11:49.014Z,51.5083
2023-04-09T00:12:50.658Z,51.5155
2023-04-09T00:13:52.355Z,51.2642
2023-04-09T00:14:53.949Z,51.0796
2023-04-09T00:15:55.639Z,50.9724
2023-04-09T00:16:57.327Z,51.0008
2023-04-09T00:17:58.941Z,51.0397
2023-04-09T00:19:00.566Z,50.9657
2023-04-09T00:20:02.230Z,50.9816
2023-04-09T00:21:03.874Z,51.0083
2023-04-09T00:22:05.538Z,51.0465
2023-04-09T00:23:07.217Z,51.0303
2023-04-09T00:24:08.741Z,51.0489
2023-04-09T00:25:10.451Z,51.0843
2023-04-09T00:26:12.178Z,51.1284
2023-04-09T00:27:13.870Z,51.1501
2023-04-09T00:28:15.471Z,51.1314
2023-04-09T00:29:17.208Z,51.0170
2023-04-09T00:30:18.800Z,50.9248
2023-04-09T00:31:20.877Z,50.8350
2023-04-09T00:32:22.075Z,50.8193
2023-04-09T00:33:23.652Z,50.7708
2023-04-09T00:34:25.336Z,50.6187
2023-04-09T00:35:26.974Z,50.5430
2023-04-09T00:36:28.728Z,50.5131
2023-04-09T00:37:30.315Z,50.4487
2023-04-09T00:38:31.999Z,50.4008
2023-04-09T00:39:33.621Z,50.4306
2023-04-09T00:40:35.255Z,50.3702
2023-04-09T00:41:37.009Z,50.2954
2023-04-09T00:42:38.590Z,50.1598
2023-04-09T00:43:40.274Z,50.0374
2023-04-09T00:44:41.810Z,49.9446
2023-04-09T00:45:43.536Z,49.8988
2023-04-09T00:46:45.106Z,49.8427
2023-04-09T00:47:47.383Z,49.8926
2023-04-09T00:48:48.510Z,49.8959
2023-04-09T00:49:50.179Z,49.9248
2023-04-09T00:50:51.748Z,49.8870
2023-04-09T00:51:53.387Z,49.8559
2023-04-09T00:52:55.154Z,49.8142
2023-04-09T00:53:56.788Z,49.8097
2023-04-09T00:54:58.439Z,49.7611
2023-04-09T00:56:00.031Z,49.7010
2023-04-09T00:57:01.678Z,49.7340
2023-04-09T00:58:03.432Z,49.8357
2023-04-09T00:59:05.370Z,49.8256
2023-04-09T01:00:06.718Z,49.6030
2023-04-09T01:01:08.398Z,49.3451
2023-04-09T01:02:10.922Z,49.2225
2023-04-09T01:03:12.029Z,51.0564
2023-04-09T01:04:13.346Z,53.6246
2023-04-09T01:05:14.928Z,53.9037
2023-04-09T01:06:16.538Z,53.3692
2023-04-09T01:07:18.281Z,52.7677
2023-04-09T01:08:20.103Z,52.2886
2023-04-09T01:09:21.565Z,51.9329
2023-04-09T01:10:23.206Z,52.2283
2023-04-09T01:11:24.982Z,52.6768
2023-04-09T01:12:26.511Z,52.7224
2023-04-09T01:13:28.223Z,52.1236
2023-04-09T01:14:29.940Z,51.7321
2023-04-09T01:15:31.524Z,51.3655
2023-04-09T01:16:33.136Z,51.3341
2023-04-09T01:17:34.892Z,51.5673
2023-04-09T01:18:36.505Z,52.0396
2023-04-09T01:19:38.124Z,51.8494
2023-04-09T01:20:39.828Z,51.5173
2023-04-09T01:21:41.423Z,51.1446
2023-04-09T01:22:43.078Z,50.9309
2023-04-09T01:23:44.791Z,50.8880
2023-04-09T01:24:46.398Z,51.2232
2023-04-09T01:25:48.068Z,51.1817
2023-04-09T01:26:49.701Z,50.7391
2023-04-09T01:27:51.345Z,50.5505
2023-04-09T01:28:53.459Z,50.3229
2023-04-09T01:29:54.675Z,50.2811
2023-04-09T01:30:56.455Z,50.3952
2023-04-09T01:31:57.966Z,50.7303
2023-04-09T01:33:00.036Z,50.6015
2023-04-09T01:34:01.414Z,50.2535
2023-04-09T01:35:02.905Z,49.9768
2023-04-09T01:36:04.719Z,49.7294
2023-04-09T01:37:06.294Z,49.7425
2023-04-09T01:38:07.898Z,49.9803
2023-04-09T01:39:09.611Z,50.1499
2023-04-09T01:40:11.340Z,49.7541
2023-04-09T01:41:12.763Z,49.3714
2023-04-09T01:42:14.450Z,49.2188
2023-04-09T01:43:16.089Z,49.2847
2023-04-09T01:44:17.733Z,49.4557
2023-04-09T01:45:19.460Z,49.7704
2023-04-09T01:46:21.134Z,49.6173
2023-04-09T01:47:22.701Z,49.4810
2023-04-09T01:48:24.355Z,49.2432
2023-04-09T01:49:26.155Z,49.0929
2023-04-09T01:50:27.827Z,49.2625
2023-04-09T01:51:29.362Z,49.6768
2023-04-09T01:52:31.778Z,49.7633
2023-04-09T01:53:32.756Z,49.3445
2023-04-09T01:54:34.509Z,49.1555
2023-04-09T01:55:36.046Z,48.8576
2023-04-09T01:56:37.760Z,48.7388
2023-04-09T01:57:39.326Z,48.9025
2023-04-09T01:58:41.040Z,49.4251
2023-04-09T01:59:42.646Z,49.3304
2023-04-09T02:00:45.286Z,48.9269
2023-04-09T02:01:46.966Z,48.6805
2023-04-09T02:02:47.749Z,48.4187
2023-04-09T02:03:49.389Z,48.5242
2023-04-09T02:04:51.165Z,48.8090
2023-04-09T02:05:52.939Z,49.1604
2023-04-09T02:06:54.257Z,48.9577
2023-04-09T02:07:55.895Z,48.8156
2023-04-09T02:08:57.613Z,48.7139
2023-04-09T02:09:59.283Z,52.1848
2023-04-09T02:11:00.840Z,54.2629
2023-04-09T02:12:02.542Z,54.5147
2023-04-09T02:13:04.157Z,53.6669
2023-04-09T02:14:05.990Z,52.6641
2023-04-09T02:15:07.595Z,52.0682
2023-04-09T02:16:09.178Z,51.9223
2023-04-09T02:17:10.796Z,52.0680
2023-04-09T02:18:12.451Z,52.3657
2023-04-09T02:19:14.076Z,52.6623
2023-04-09T02:20:15.820Z,51.7272
2023-04-09T02:21:17.353Z,51.3595
2023-04-09T02:22:19.019Z,51.0050
2023-04-09T02:23:20.728Z,50.9288
2023-04-09T02:24:22.447Z,51.1655
2023-04-09T02:25:24.078Z,51.6400
2023-04-09T02:26:25.642Z,51.7205
2023-04-09T02:27:27.406Z,51.2029
2023-04-09T02:28:29.049Z,51.0119
2023-04-09T02:29:30.649Z,50.5783
2023-04-09T02:30:32.343Z,50.6130
2023-04-09T02:31:34.023Z,50.6974
2023-04-09T02:32:35.744Z,51.0843
2023-04-09T02:33:37.353Z,50.7999
2023-04-09T02:34:39.059Z,50.5544
2023-04-09T02:35:40.670Z,50.2059
2023-04-09T02:36:42.334Z,50.0132
2023-04-09T02:37:44.014Z,50.1011
2023-04-09T02:38:45.604Z,50.4276
2023-04-09T02:39:47.406Z,50.7052
2023-04-09T02:40:48.948Z,50.3251
2023-04-09T02:41:50.642Z,50.0148
2023-04-09T02:42:52.172Z,49.6363
2023-04-09T02:43:53.910Z,49.3942
2023-04-09T02:44:55.577Z,49.5431
2023-04-09T02:45:57.459Z,49.9757
2023-04-09T02:46:58.780Z,50.0672
2023-04-09T02:48:00.501Z,49.7587
2023-04-09T02:49:02.858Z,49.4795
2023-04-09T02:50:03.897Z,49.2045
2023-04-09T02:51:05.597Z,49.1647
2023-04-09T02:52:07.114Z,49.3857
2023-04-09T02:53:08.894Z,49.7099
2023-04-09T02:54:10.412Z,48.2768
2023-04-09T02:55:12.069Z,46.6968
2023-04-09T02:56:13.815Z,45.3348
2023-04-09T02:57:15.261Z,44.8163
2023-04-09T02:58:16.992Z,44.2987
2023-04-09T02:59:18.727Z,44.1569
2023-04-09T03:00:20.348Z,44.4139
2023-04-09T03:01:22.135Z,44.6360
2023-04-09T03:02:23.818Z,44.9613
2023-04-09T03:03:26.040Z,45.2447
2023-04-09T03:04:26.980Z,45.2061
2023-04-09T03:05:28.520Z,45.1279
2023-04-09T03:06:30.294Z,45.2023
2023-04-09T03:07:31.856Z,45.3052
2023-04-09T03:08:33.504Z,45.1948
2023-04-09T03:09:35.157Z,45.0744
2023-04-09T03:10:36.820Z,45.0828
2023-04-09T03:11:38.536Z,45.2205
2023-04-09T03:12:40.128Z,45.3103
2023-04-09T03:13:41.820Z,45.0193
2023-04-09T03:14:43.483Z,44.8216
2023-04-09T03:15:45.125Z,44.8573
2023-04-09T03:16:46.781Z,45.0154
2023-04-09T03:17:48.433Z,45.0270
2023-04-09T03:18:50.256Z,44.8663
2023-04-09T03:19:51.686Z,44.8028
2023-04-09T03:20:53.341Z,44.7320
2023-04-09T03:21:55.031Z,44.7576
2023-04-09T03:22:56.638Z,44.8165
2023-04-09T03:23:58.321Z,44.6932
2023-04-09T03:24:59.983Z,44.4742
2023-04-09T03:26:01.616Z,44.4370
2023-04-09T03:27:03.362Z,44.4864
2023-04-09T03:28:04.876Z,44.5422
2023-04-09T03:29:06.616Z,44.6322
2023-04-09T03:30:08.235Z,44.6873
2023-04-09T03:31:09.964Z,44.7150
2023-04-09T03:32:11.545Z,44.7590
2023-04-09T03:33:13.187Z,44.5672
2023-04-09T03:34:14.836Z,44.2948
2023-04-09T03:35:16.464Z,44.3285
2023-04-09T03:36:18.091Z,44.4046
2023-04-09T03:37:19.818Z,44.4747
2023-04-09T03:38:21.408Z,44.5097
2023-04-09T03:39:23.121Z,44.5058
2023-04-09T03:40:24.740Z,44.2584
2023-04-09T03:41:26.469Z,44.0856
2023-04-09T03:42:27.998Z,44.0856
2023-04-09T03:43:29.703Z,44.1719
2023-04-09T03:44:31.954Z,44.2294
2023-04-09T03:45:33.017Z,44.3013
2023-04-09T03:46:34.750Z,44.3159
2023-04-09T03:47:36.354Z,44.0692
2023-04-09T03:48:38.009Z,43.9812
2023-04-09T03:49:39.614Z,44.0311
2023-04-09T03:50:41.252Z,44.1195
2023-04-09T03:51:42.937Z,44.1419
2023-04-09T03:52:44.651Z,44.1880
2023-04-09T03:53:46.335Z,44.1489
2023-04-09T03:54:47.962Z,43.9262
2023-04-09T03:55:49.626Z,43.8714
2023-04-09T03:56:52.068Z,43.9888
2023-04-09T03:57:52.934Z,44.0941
2023-04-09T03:58:54.881Z,44.1265
2023-04-09T03:59:56.248Z,44.0503
2023-04-09T04:00:57.769Z,43.8875
2023-04-09T04:01:59.549Z,43.8579
2023-04-09T04:03:01.372Z,43.8960
2023-04-09T04:04:02.941Z,44.0318
2023-04-09T04:05:04.493Z,44.0956
2023-04-09T04:06:06.160Z,44.1402
2023-04-09T04:07:07.804Z,44.0385
2023-04-09T04:08:09.423Z,43.8714
2023-04-09T04:09:11.023Z,43.9428
2023-04-09T04:10:12.794Z,44.0404
2023-04-09T04:11:14.374Z,44.0622
2023-04-09T04:12:16.020Z,44.1086
2023-04-09T04:13:17.707Z,43.9536
2023-04-09T04:14:19.355Z,43.8977
2023-04-09T04:15:21.044Z,43.9715
2023-04-09T04:16:22.697Z,44.0798
2023-04-09T04:17:24.341Z,44.1208
2023-04-09T04:18:25.957Z,44.1676
2023-04-09T04:19:27.614Z,44.0768
2023-04-09T04:20:29.244Z,43.9856
2023-04-09T04:21:30.919Z,43.9584
2023-04-09T04:22:32.602Z,44.0181
2023-04-09T04:23:34.250Z,44.0468
2023-04-09T04:24:35.901Z,44.0895
2023-04-09T04:25:37.541Z,44.1233
2023-04-09T04:26:39.229Z,44.0065
2023-04-09T04:27:40.893Z,43.8184
2023-04-09T04:28:42.556Z,43.7376
2023-04-09T04:29:44.141Z,43.8073
2023-04-09T04:30:45.867Z,43.8787
2023-04-09T04:31:47.497Z,43.9512
2023-04-09T04:32:49.097Z,44.0290
2023-04-09T04:33:50.782Z,44.0101
2023-04-09T04:34:52.425Z,44.0747
2023-04-09T04:35:54.144Z,43.7836
2023-04-09T04:36:55.633Z,43.6381
2023-04-09T04:37:57.399Z,43.7019
2023-04-09T04:38:59.067Z,43.7799
2023-04-09T04:40:00.666Z,43.8771
2023-04-09T04:41:02.306Z,43.9795
2023-04-09T04:42:03.947Z,44.0224
2023-04-09T04:43:05.665Z,43.8006
2023-04-09T04:44:07.311Z,43.5930
2023-04-09T04:45:09.052Z,43.6380
2023-04-09T04:46:10.622Z,43.7489
2023-04-09T04:47:12.244Z,43.7988
2023-04-09T04:48:13.917Z,43.9788
2023-04-09T04:49:16.324Z,43.8201
2023-04-09T04:50:17.256Z,43.5109
2023-04-09T04:51:18.841Z,43.5739
2023-04-09T04:52:20.475Z,43.8064
2023-04-09T04:53:22.139Z,44.0867
2023-04-09T04:54:23.842Z,43.7171
2023-04-09T04:55:26.505Z,43.4746
2023-04-09T04:56:27.114Z,43.4668
2023-04-09T04:57:28.939Z,43.6351
2023-04-09T04:58:30.423Z,43.8353
2023-04-09T04:59:32.200Z,43.9924
2023-04-09T05:00:33.734Z,44.0561
2023-04-09T05:01:35.418Z,44.0788
2023-04-09T05:02:37.186Z,44.0997
2023-04-09T05:03:38.779Z,44.1303
2023-04-09T05:04:40.392Z,44.1416
2023-04-09T05:05:42.002Z,44.2346
2023-04-09T05:06:43.662Z,44.3425
2023-04-09T05:07:45.306Z,44.4859
2023-04-09T05:08:47.009Z,44.5567
2023-04-09T05:09:48.626Z,44.6973
2023-04-09T05:10:50.220Z,44.7581
2023-04-09T05:11:51.930Z,44.8070
2023-04-09T05:12:53.611Z,44.8052
2023-04-09T05:13:55.186Z,44.8716
2023-04-09T05:14:56.986Z,44.9111
2023-04-09T05:15:58.630Z,44.8957
2023-04-09T05:17:00.216Z,45.1165
2023-04-09T05:18:01.925Z,45.1580
2023-04-09T05:19:03.528Z,45.1316
2023-04-09T05:20:05.949Z,45.1168
2023-04-09T05:21:07.457Z,45.1601
2023-04-09T05:22:08.464Z,45.0903
2023-04-09T05:23:10.082Z,45.2600
2023-04-09T05:24:11.737Z,45.2588
2023-04-09T05:25:13.410Z,45.3163
2023-04-09T05:26:14.995Z,45.2308
2023-04-09T05:27:16.722Z,45.0501
2023-04-09T05:28:18.434Z,44.9793
2023-04-09T05:29:20.058Z,45.0118
2023-04-09T05:30:21.724Z,45.0934
2023-04-09T05:31:23.257Z,45.1794
2023-04-09T05:32:25.221Z,45.2843
2023-04-09T05:33:26.679Z,45.4308
2023-04-09T05:34:28.265Z,45.4890
2023-04-09T05:35:29.983Z,45.4965
2023-04-09T05:36:31.577Z,45.4331
2023-04-09T05:37:33.499Z,45.4174
2023-04-09T05:38:34.965Z,45.3460
2023-04-09T05:39:37.502Z,45.3621
2023-04-09T05:40:38.298Z,45.2647
2023-04-09T05:41:39.857Z,45.4829
2023-04-09T05:42:41.537Z,45.7599
2023-04-09T05:43:43.439Z,45.9884
2023-04-09T05:44:44.857Z,46.1896
2023-04-09T05:45:46.718Z,45.9179
2023-04-09T05:46:48.189Z,45.7305
2023-04-09T05:47:49.824Z,45.6156
2023-04-09T05:48:51.595Z,45.4578
2023-04-09T05:49:53.246Z,45.6938
2023-04-09T05:50:55.841Z,46.0116
2023-04-09T05:51:56.517Z,45.6836
2023-04-09T05:52:58.191Z,45.4629
2023-04-09T05:53:59.858Z,45.3977
2023-04-09T05:55:01.492Z,45.2573
2023-04-09T05:56:03.126Z,45.4051
2023-04-09T05:57:04.811Z,45.8319
2023-04-09T05:58:06.499Z,45.6770
2023-04-09T05:59:07.995Z,45.4603
2023-04-09T06:00:10.102Z,45.3114
2023-04-09T06:01:11.356Z,45.2500
2023-04-09T06:02:13.004Z,45.4791
2023-04-09T06:03:14.777Z,45.7921
2023-04-09T06:04:16.406Z,45.5192
2023-04-09T06:05:18.581Z,45.5574
2023-04-09T06:06:19.632Z,45.2342
2023-04-09T06:07:21.241Z,45.2034
2023-04-09T06:08:22.958Z,45.4791
2023-04-09T06:09:24.612Z,45.7068
2023-04-09T06:10:26.537Z,45.5966
2023-04-09T06:11:28.009Z,45.5859
2023-04-09T06:12:29.911Z,45.2712
2023-04-09T06:13:31.202Z,45.3724
2023-04-09T06:14:32.882Z,45.6484
2023-04-09T06:15:34.555Z,45.5476
2023-04-09T06:16:36.130Z,45.3507
2023-04-09T06:17:37.804Z,45.2361
2023-04-09T06:18:39.611Z,45.0079
2023-04-09T06:19:41.170Z,45.1894
2023-04-09T06:20:42.911Z,45.6310
2023-04-09T06:21:44.297Z,45.5175
2023-04-09T06:22:45.987Z,45.2638
2023-04-09T06:23:47.642Z,45.2052
2023-04-09T06:24:49.279Z,45.0995
2023-04-09T06:25:50.972Z,45.2715
2023-04-09T06:26:52.607Z,45.6291
2023-04-09T06:27:54.212Z,45.8022
2023-04-09T06:28:55.877Z,45.5676
2023-04-09T06:29:57.550Z,45.5315
2023-04-09T06:30:59.300Z,45.3224
2023-04-09T06:32:00.786Z,45.3462
2023-04-09T06:33:02.572Z,45.6454
2023-04-09T06:34:04.103Z,45.5904
2023-04-09T06:35:05.826Z,45.3556
2023-04-09T06:36:08.484Z,45.2118
2023-04-09T06:37:09.021Z,45.0396
2023-04-09T06:38:11.362Z,45.1480
2023-04-09T06:39:13.168Z,45.4781
2023-04-09T06:40:14.071Z,45.5275
2023-04-09T06:41:15.930Z,45.2676
2023-04-09T06:42:17.373Z,45.1136
2023-04-09T06:43:18.964Z,45.0429
2023-04-09T06:44:20.670Z,45.1356
2023-04-09T06:45:22.247Z,45.3987
2023-04-09T06:46:24.033Z,45.4972
2023-04-09T06:47:25.621Z,45.2060
2023-04-09T06:48:27.930Z,45.1112
2023-04-09T06:49:28.893Z,44.9383
2023-04-09T06:50:30.557Z,45.1236
2023-04-09T06:51:32.541Z,45.0658
2023-04-09T06:52:33.937Z,45.2583
2023-04-09T06:53:35.519Z,45.2804
2023-04-09T06:54:37.991Z,45.1815
2023-04-09T06:55:38.885Z,45.0068
2023-04-09T06:56:40.962Z,45.0471
2023-04-09T06:57:42.143Z,45.1980
2023-04-09T06:58:43.837Z,45.4913
2023-04-09T06:59:45.486Z,45.3052
2023-04-09T07:00:47.089Z,45.1518
2023-04-09T07:01:49.385Z,44.9509
2023-04-09T07:02:50.673Z,45.1482
2023-04-09T07:03:52.625Z,45.3938
2023-04-09T07:04:53.729Z,45.5913
2023-04-09T07:05:55.432Z,45.3143
2023-04-09T07:06:58.150Z,45.0758
2023-04-09T07:07:58.703Z,44.8155
2023-04-09T07:09:00.461Z,44.8871
2023-04-09T07:10:02.019Z,45.2328
2023-04-09T07:11:03.669Z,45.5012
2023-04-09T07:12:05.386Z,45.2368
2023-04-09T07:13:07.495Z,45.0448
2023-04-09T07:14:08.625Z,44.8706
2023-04-09T07:15:10.318Z,44.8267
2023-04-09T07:16:11.943Z,45.0752
2023-04-09T07:17:13.634Z,45.3529
2023-04-09T07:18:15.265Z,45.1516
2023-04-09T07:19:16.777Z,44.9640
2023-04-09T07:20:18.566Z,44.7014
2023-04-09T07:21:20.165Z,44.6642
2023-04-09T07:22:22.128Z,45.0061
2023-04-09T07:23:23.577Z,45.1237
2023-04-09T07:24:25.301Z,45.1431
2023-04-09T07:25:26.778Z,44.9496
2023-04-09T07:26:28.509Z,44.8175
2023-04-09T07:27:30.101Z,44.6829
2023-04-09T07:28:31.757Z,45.0836
2023-04-09T07:29:33.586Z,45.1996
2023-04-09T07:30:35.013Z,44.9546
2023-04-09T07:31:36.619Z,44.7599
2023-04-09T07:32:38.444Z,44.5934
2023-04-09T07:33:39.957Z,44.7320
2023-04-09T07:34:41.597Z,45.3079
2023-04-09T07:35:43.216Z,45.0445
2023-04-09T07:36:44.954Z,44.7108
2023-04-09T07:37:47.003Z,44.6372
2023-04-09T07:38:48.551Z,44.5049
2023-04-09T07:39:49.888Z,44.7005
2023-04-09T07:40:51.902Z,44.7354
2023-04-09T07:41:53.148Z,44.4587
2023-04-09T07:42:54.834Z,44.2554
2023-04-09T07:43:56.565Z,44.0610
2023-04-09T07:44:58.250Z,44.1950
2023-04-09T07:45:59.853Z,44.6027
2023-04-09T07:47:01.557Z,44.3226
2023-04-09T07:48:03.510Z,44.1173
2023-04-09T07:49:04.943Z,44.2317
2023-04-09T07:50:06.351Z,43.8917
2023-04-09T07:51:08.934Z,44.1691
2023-04-09T07:52:09.666Z,44.2590
2023-04-09T07:53:12.004Z,43.9432
2023-04-09T07:54:13.094Z,43.7491
2023-04-09T07:55:15.154Z,43.6979
2023-04-09T07:56:16.223Z,43.3641
2023-04-09T07:57:17.869Z,43.7427
2023-04-09T07:58:19.613Z,43.6522
2023-04-09T07:59:21.217Z,43.3483
2023-04-09T08:00:22.856Z,43.3842
2023-04-09T08:01:24.508Z,43.2738
2023-04-09T08:02:26.364Z,43.2879
2023-04-09T08:03:28.115Z,43.7339
2023-04-09T08:04:29.487Z,43.6136
2023-04-09T08:05:31.142Z,43.2434
2023-04-09T08:06:32.737Z,43.4670
2023-04-09T08:07:34.482Z,43.1970
2023-04-09T08:08:36.103Z,43.2131
2023-04-09T08:09:37.761Z,43.4350
2023-04-09T08:10:39.368Z,43.2103
2023-04-09T08:11:40.984Z,43.0022
2023-04-09T08:12:42.706Z,43.1177
2023-04-09T08:13:44.622Z,42.8963
2023-04-09T08:14:45.940Z,43.2518
2023-04-09T08:15:47.635Z,43.3604
2023-04-09T08:16:49.372Z,43.0480
2023-04-09T08:17:51.497Z,43.0048
2023-04-09T08:18:52.932Z,42.9586
2023-04-09T08:19:54.586Z,42.7911
2023-04-09T08:20:55.839Z,43.2382
2023-04-09T08:21:57.567Z,43.1108
2023-04-09T08:22:59.207Z,42.7409
2023-04-09T08:24:00.833Z,42.8063
2023-04-09T08:25:03.537Z,42.6038
2023-04-09T08:26:04.073Z,42.5429
2023-04-09T08:27:05.748Z,43.0871
2023-04-09T08:28:07.410Z,42.9517
2023-04-09T08:29:09.109Z,42.6823
2023-04-09T08:30:10.730Z,42.5962
2023-04-09T08:31:12.448Z,42.4146
2023-04-09T08:32:14.045Z,42.7636
2023-04-09T08:33:15.641Z,42.9690
2023-04-09T08:34:17.584Z,42.6748
2023-04-09T08:35:19.058Z,42.2848
2023-04-09T08:36:21.593Z,42.4509
2023-04-09T08:37:22.419Z,42.1267
2023-04-09T08:38:24.094Z,42.5293
2023-04-09T08:39:25.792Z,42.7159
2023-04-09T08:40:27.581Z,42.5131
2023-04-09T08:41:28.944Z,42.3502
2023-04-09T08:42:30.545Z,42.1564
2023-04-09T08:43:52.531Z,42.0742
2023-04-09T08:44:33.963Z,42.5605
2023-04-09T08:45:35.604Z,42.6944
2023-04-09T08:46:37.147Z,42.3704
2023-04-09T08:47:38.934Z,42.0308
2023-04-09T08:48:40.586Z,41.9369
2023-04-09T08:49:43.034Z,41.8829
2023-04-09T08:50:43.767Z,42.4080
2023-04-09T08:51:45.450Z,42.5283
2023-04-09T08:52:47.132Z,42.2688
2023-04-09T08:53:48.723Z,42.1684
2023-04-09T08:54:50.447Z,41.9791
2023-04-09T08:55:53.152Z,42.0014
2023-04-09T08:56:53.812Z,42.4487
2023-04-09T08:57:56.094Z,42.3407
2023-04-09T08:58:57.139Z,41.9033
2023-04-09T08:59:59.121Z,41.8000
2023-04-09T09:01:00.488Z,41.6681
2023-04-09T09:02:02.087Z,41.7654
2023-04-09T09:03:03.824Z,42.1833
2023-04-09T09:04:05.380Z,41.9918
2023-04-09T09:05:07.163Z,41.6046
2023-04-09T09:06:08.646Z,41.4950
2023-04-09T09:07:10.376Z,41.4353
2023-04-09T09:08:12.607Z,41.8011
2023-04-09T09:09:13.576Z,42.1211
2023-04-09T09:10:15.714Z,41.8379
2023-04-09T09:11:16.933Z,41.4351
2023-04-09T09:12:18.654Z,41.3107
2023-04-09T09:13:20.266Z,41.2643
2023-04-09T09:14:21.947Z,41.7156
2023-04-09T09:15:23.714Z,41.8812
2023-04-09T09:16:25.187Z,41.4750
2023-04-09T09:17:26.947Z,41.2374
2023-04-09T09:18:28.521Z,41.2318
2023-04-09T09:19:30.656Z,41.2783
2023-04-09T09:20:32.326Z,41.7045
2023-04-09T09:21:33.591Z,41.6848
2023-04-09T09:22:35.148Z,41.3368
2023-04-09T09:23:36.880Z,41.1301
2023-04-09T09:24:38.494Z,40.9890
2023-04-09T09:25:40.128Z,41.1888
2023-04-09T09:26:41.850Z,41.6273
2023-04-09T09:27:43.402Z,41.5292
2023-04-09T09:28:45.050Z,41.1430
2023-04-09T09:29:46.714Z,41.0248
2023-04-09T09:30:49.526Z,40.8487
2023-04-09T09:31:50.079Z,41.1626
2023-04-09T09:32:51.765Z,41.5318
2023-04-09T09:33:53.308Z,41.2963
2023-04-09T09:34:54.874Z,40.9492
2023-04-09T09:35:56.730Z,40.8260
2023-04-09T09:36:58.268Z,40.7130
2023-04-09T09:37:59.954Z,41.1121
2023-04-09T09:39:01.586Z,41.4804
2023-04-09T09:40:03.180Z,41.2649
2023-04-09T09:41:04.878Z,40.9581
2023-04-09T09:42:06.482Z,40.8819
2023-04-09T09:43:08.205Z,40.8393
2023-04-09T09:44:09.701Z,41.3218
2023-04-09T09:45:11.454Z,41.4730
2023-04-09T09:46:13.231Z,41.1565
2023-04-09T09:47:14.836Z,40.9118
2023-04-09T09:48:16.501Z,40.6378
2023-04-09T09:49:18.112Z,40.7222
2023-04-09T09:50:19.693Z,41.1574
2023-04-09T09:51:21.394Z,41.2205
2023-04-09T09:52:23.084Z,40.8192
2023-04-09T09:53:24.665Z,40.6754
2023-04-09T09:54:26.365Z,40.5469
2023-04-09T09:55:28.144Z,40.6047
2023-04-09T09:56:29.792Z,41.1499
2023-04-09T09:57:31.421Z,41.0460
2023-04-09T09:58:33.094Z,40.7160
2023-04-09T09:59:34.674Z,40.5631
2023-04-09T10:00:36.359Z,40.5460
2023-04-09T10:01:38.148Z,40.6947
2023-04-09T10:02:39.699Z,41.0442
2023-04-09T10:03:41.372Z,40.9293
2023-04-09T10:04:43.068Z,40.5314
2023-04-09T10:05:44.583Z,40.5154
2023-04-09T10:06:46.354Z,40.4376
2023-04-09T10:07:47.885Z,40.7944
2023-04-09T10:08:49.710Z,41.1539
2023-04-09T10:09:51.214Z,40.8699
2023-04-09T10:10:52.991Z,40.5143
2023-04-09T10:11:54.670Z,40.4260
2023-04-09T10:12:56.476Z,40.2602
2023-04-09T10:13:57.795Z,40.7551
2023-04-09T10:14:59.510Z,41.0460
2023-04-09T10:16:01.144Z,40.7813
2023-04-09T10:17:02.856Z,40.3994
2023-04-09T10:18:04.475Z,40.2837
2023-04-09T10:19:06.075Z,40.3451
2023-04-09T10:20:07.722Z,40.7733
2023-04-09T10:21:09.369Z,40.9550
2023-04-09T10:22:11.052Z,40.6561
2023-04-09T10:23:13.215Z,40.2808
2023-04-09T10:24:14.278Z,40.1852
2023-04-09T10:25:15.984Z,40.1973
2023-04-09T10:26:17.716Z,40.4527
2023-04-09T10:27:19.390Z,40.7922
2023-04-09T10:28:20.963Z,40.5660
2023-04-09T10:29:22.650Z,40.2155
2023-04-09T10:30:24.220Z,40.3359
2023-04-09T10:31:25.908Z,40.2270
2023-04-09T10:32:28.604Z,40.5089
2023-04-09T10:33:29.245Z,40.7014
2023-04-09T10:34:30.939Z,40.4073
2023-04-09T10:35:32.475Z,40.0127
2023-04-09T10:36:34.165Z,39.8742
2023-04-09T10:37:35.873Z,39.9580
2023-04-09T10:38:37.471Z,40.2971
2023-04-09T10:39:39.161Z,40.5327
2023-04-09T10:40:40.735Z,40.3737
2023-04-09T10:41:42.442Z,39.9750
2023-04-09T10:42:44.143Z,40.0145
2023-04-09T10:43:45.751Z,39.9196
2023-04-09T10:44:47.415Z,40.3955
2023-04-09T10:45:49.061Z,40.5617
2023-04-09T10:46:50.803Z,40.2920
2023-04-09T10:47:52.842Z,39.9054
2023-04-09T10:48:54.131Z,39.8446
2023-04-09T10:49:55.708Z,39.6917
2023-04-09T10:50:57.322Z,39.9828
2023-04-09T10:51:59.000Z,40.1974
2023-04-09T10:53:00.735Z,40.0132
2023-04-09T10:54:02.298Z,39.6514
2023-04-09T10:55:03.913Z,39.6251
2023-04-09T10:56:05.562Z,39.6487
2023-04-09T10:57:07.307Z,39.9239
2023-04-09T10:58:11.296Z,40.1812
2023-04-09T10:59:10.595Z,39.9069
2023-04-09T11:00:12.541Z,39.5459
2023-04-09T11:01:13.851Z,39.4330
2023-04-09T11:02:15.564Z,39.5093
2023-04-09T11:03:17.370Z,39.7659
2023-04-09T11:04:18.648Z,40.1342
2023-04-09T11:05:20.320Z,39.8645
2023-04-09T11:06:21.984Z,39.4129
2023-04-09T11:07:23.692Z,39.4927
2023-04-09T11:08:25.313Z,39.5010
2023-04-09T11:09:26.910Z,39.9876
2023-04-09T11:10:28.578Z,40.1126
2023-04-09T11:11:30.241Z,39.7683
2023-04-09T11:12:31.878Z,39.3666
2023-04-09T11:13:33.541Z,39.3479
2023-04-09T11:14:35.180Z,39.4535
2023-04-09T11:15:36.826Z,39.6302
2023-04-09T11:16:38.664Z,39.7893
2023-04-09T11:17:40.277Z,39.5368
2023-04-09T11:18:42.172Z,39.2772
2023-04-09T11:19:43.504Z,39.3050
2023-04-09T11:20:45.078Z,39.4649
2023-04-09T11:21:46.817Z,39.8143
2023-04-09T11:22:48.419Z,39.9088
2023-04-09T11:23:50.155Z,39.5921
2023-04-09T11:24:51.770Z,39.2078
2023-04-09T11:25:53.368Z,39.1342
2023-04-09T11:26:55.092Z,39.2747
2023-04-09T11:27:56.647Z,39.6524
2023-04-09T11:28:59.145Z,39.6807
2023-04-09T11:30:00.134Z,39.3941
2023-04-09T11:31:01.794Z,39.1675
2023-04-09T11:32:03.262Z,39.0153
2023-04-09T11:33:05.129Z,39.2477
2023-04-09T11:34:06.667Z,39.5485
2023-04-09T11:35:08.243Z,39.4136
2023-04-09T11:36:09.854Z,39.1214
2023-04-09T11:37:11.546Z,39.0893
2023-04-09T11:38:14.048Z,39.1276
2023-04-09T11:39:15.145Z,39.4115
2023-04-09T11:40:16.540Z,39.5703
2023-04-09T11:41:18.188Z,39.2663
2023-04-09T11:42:19.755Z,38.7669
2023-04-09T11:43:21.459Z,38.8187
2023-04-09T11:44:23.701Z,38.7257
2023-04-09T11:45:24.722Z,39.0407
2023-04-09T11:46:27.456Z,39.2779
2023-04-09T11:47:28.045Z,39.0202
2023-04-09T11:48:29.784Z,38.5380
2023-04-09T11:49:32.245Z,38.3733
2023-04-09T11:50:33.027Z,38.4974
2023-04-09T11:51:34.749Z,38.8188
2023-04-09T11:52:36.452Z,39.0146
2023-04-09T11:53:38.073Z,38.7323
2023-04-09T11:54:39.740Z,38.3124
2023-04-09T11:55:41.378Z,38.1896
2023-04-09T11:56:43.075Z,38.2320
2023-04-09T11:57:44.681Z,38.4844
2023-04-09T11:58:46.327Z,38.6631
2023-04-09T11:59:48.129Z,38.4781
2023-04-09T12:00:49.676Z,38.0391
2023-04-09T12:01:51.515Z,37.7583
2023-04-09T12:02:53.301Z,37.8404
2023-04-09T12:03:54.675Z,37.9897
2023-04-09T12:04:56.620Z,38.1152
2023-04-09T12:05:57.764Z,37.9945
2023-04-09T12:06:59.482Z,37.6918
2023-04-09T12:08:01.067Z,37.7372
2023-04-09T12:09:02.831Z,37.6337
2023-04-09T12:10:04.560Z,37.9760
2023-04-09T12:11:06.076Z,38.0810
2023-04-09T12:12:08.680Z,37.9256
2023-04-09T12:13:09.370Z,37.5633
2023-04-09T12:14:11.033Z,37.3456
2023-04-09T12:15:12.806Z,37.2126
2023-04-09T12:16:14.577Z,37.5368
2023-04-09T12:17:15.963Z,37.6097
2023-04-09T12:18:17.693Z,37.6233
2023-04-09T12:19:19.333Z,37.2661
2023-04-09T12:20:21.209Z,37.0921
2023-04-09T12:21:22.572Z,37.0506
2023-04-09T12:22:24.226Z,37.2594
2023-04-09T12:23:25.987Z,37.3872
2023-04-09T12:24:27.571Z,37.4895
2023-04-09T12:25:29.271Z,37.1511